createdAt,value
2019-06-20T00:00:10.587Z,15.78
2019-06-20T00:01:10.550Z,15.79
2019-06-20T00:02:10.538Z,15.75
2019-06-20T00:03:10.526Z,15.86
2019-06-20T00:04:10.527Z,15.86
2019-06-20T00:05:10.548Z,15.85
2019-06-20T00:06:10.499Z,15.97
2019-06-20T00:07:10.483Z,15.92
2019-06-20T00:08:10.472Z,15.92
2019-06-20T00:09:10.462Z,15.85
2019-06-20T00:10:10.545Z,15.78
2019-06-20T00:11:10.470Z,15.81
2019-06-20T00:12:10.430Z,15.74
2019-06-20T00:13:10.421Z,15.75
2019-06-20T00:14:10.406Z,15.75
2019-06-20T00:15:10.424Z,15.72
2019-06-20T00:16:10.407Z,15.78
2019-06-20T00:17:10.376Z,15.75
2019-06-20T00:18:10.366Z,15.75
2019-06-20T00:19:10.350Z,15.86
2019-06-20T00:20:10.366Z,15.88
2019-06-20T00:21:10.333Z,15.75
2019-06-20T00:22:10.341Z,15.86
2019-06-20T00:23:10.325Z,15.92
2019-06-20T00:24:10.298Z,15.89
2019-06-20T00:25:10.314Z,15.86
2019-06-20T00:26:10.276Z,15.75
2019-06-20T00:27:10.281Z,15.79
2019-06-20T00:28:10.257Z,15.82
2019-06-20T00:29:10.242Z,15.81
2019-06-20T00:30:10.259Z,15.79
2019-06-20T00:31:10.225Z,15.79
2019-06-20T00:32:10.216Z,15.78
2019-06-20T00:33:10.204Z,15.78
2019-06-20T00:34:10.197Z,15.74
2019-06-20T00:35:10.203Z,15.63
2019-06-20T00:36:10.196Z,15.60
2019-06-20T00:37:10.159Z,15.49
2019-06-20T00:38:10.150Z,15.67
2019-06-20T00:39:10.137Z,15.61
2019-06-20T00:40:10.155Z,15.57
2019-06-20T00:41:10.120Z,15.61
2019-06-20T00:42:10.105Z,15.52
2019-06-20T00:43:17.294Z,15.45
2019-06-20T00:44:11.082Z,15.52
2019-06-20T00:45:10.099Z,15.56
2019-06-20T00:46:10.061Z,15.51
2019-06-20T00:47:10.067Z,15.49
2019-06-20T00:48:10.081Z,15.51
2019-06-20T00:49:10.026Z,15.51
2019-06-20T00:50:10.042Z,15.51
2019-06-20T00:51:10.007Z,15.42
2019-06-20T00:52:09.994Z,15.51
2019-06-20T00:53:09.987Z,15.42
2019-06-20T00:54:09.975Z,15.38
2019-06-20T00:55:09.986Z,15.27
2019-06-20T00:56:09.955Z,15.19
2019-06-20T00:57:09.943Z,15.21
2019-06-20T00:58:09.932Z,15.06
2019-06-20T00:59:09.920Z,15.06
2019-06-20T01:00:09.939Z,15.09
2019-06-20T01:01:09.897Z,15.05
2019-06-20T01:02:09.884Z,15.05
2019-06-20T01:03:09.876Z,15.15
2019-06-20T01:04:09.867Z,15.28
2019-06-20T01:05:09.881Z,15.26
2019-06-20T01:06:09.864Z,15.28
2019-06-20T01:07:09.830Z,15.28
2019-06-20T01:08:09.828Z,15.30
2019-06-20T01:09:09.807Z,15.31
2019-06-20T01:10:09.797Z,15.38
2019-06-20T01:11:09.810Z,15.48
2019-06-20T01:12:09.777Z,15.52
2019-06-20T01:13:09.775Z,15.52
2019-06-20T01:14:09.752Z,15.48
2019-06-20T01:15:09.747Z,15.56
2019-06-20T01:16:09.755Z,15.61
2019-06-20T01:17:09.721Z,15.59
2019-06-20T01:18:09.708Z,15.52
2019-06-20T01:19:09.698Z,15.49
2019-06-20T01:20:09.691Z,15.49
2019-06-20T01:21:09.700Z,15.43
2019-06-20T01:22:09.667Z,15.42
2019-06-20T01:23:09.654Z,15.43
2019-06-20T01:24:09.644Z,15.48
2019-06-20T01:25:09.629Z,15.39
2019-06-20T01:26:09.647Z,15.30
2019-06-20T01:27:09.612Z,15.31
2019-06-20T01:28:09.595Z,15.28
2019-06-20T01:29:09.586Z,15.36
2019-06-20T01:30:09.615Z,15.28
2019-06-20T01:31:09.593Z,15.21
2019-06-20T01:32:09.600Z,15.12
2019-06-20T01:33:09.545Z,15.11
2019-06-20T01:34:09.521Z,15.19
2019-06-20T01:35:09.521Z,15.21
2019-06-20T01:36:09.534Z,15.21
2019-06-20T01:37:09.504Z,15.28
2019-06-20T01:38:09.486Z,15.27
2019-06-20T01:39:09.474Z,15.36
2019-06-20T01:40:09.466Z,15.30
2019-06-20T01:41:09.479Z,15.31
2019-06-20T01:42:09.442Z,15.43
2019-06-20T01:43:09.441Z,15.54
2019-06-20T01:44:09.424Z,15.54
2019-06-20T01:45:09.410Z,15.67
2019-06-20T01:46:09.434Z,15.75
2019-06-20T01:47:09.388Z,15.76
2019-06-20T01:48:09.377Z,15.72
2019-06-20T01:49:09.367Z,15.74
2019-06-20T01:50:09.354Z,15.76
2019-06-20T01:51:09.371Z,15.74
2019-06-20T01:52:09.347Z,15.79
2019-06-20T01:53:09.325Z,15.75
2019-06-20T01:54:09.312Z,15.68
2019-06-20T01:55:09.299Z,15.61
2019-06-20T01:56:09.350Z,15.64
2019-06-20T01:57:09.276Z,15.67
2019-06-20T01:58:09.279Z,15.74
2019-06-20T01:59:09.255Z,15.67
2019-06-20T02:00:09.249Z,15.70
2019-06-20T02:01:09.264Z,15.70
2019-06-20T02:02:09.209Z,15.70
2019-06-20T02:03:09.213Z,15.68
2019-06-20T02:04:09.198Z,15.64
2019-06-20T02:05:09.186Z,15.72
2019-06-20T02:06:09.205Z,15.79
2019-06-20T02:07:09.169Z,15.84
2019-06-20T02:08:09.162Z,15.76
2019-06-20T02:09:09.146Z,15.85
2019-06-20T02:10:09.187Z,15.79
2019-06-20T02:11:09.149Z,15.79
2019-06-20T02:12:09.111Z,15.76
2019-06-20T02:13:09.099Z,15.81
2019-06-20T02:14:09.092Z,15.76
2019-06-20T02:15:09.085Z,15.82
2019-06-20T02:16:09.091Z,15.78
2019-06-20T02:17:09.067Z,15.89
2019-06-20T02:18:09.057Z,15.94
2019-06-20T02:19:09.036Z,15.97
2019-06-20T02:20:09.025Z,15.99
2019-06-20T02:21:09.034Z,15.96
2019-06-20T02:22:09.004Z,15.97
2019-06-20T02:23:08.992Z,15.97
2019-06-20T02:24:08.978Z,15.97
2019-06-20T02:25:08.967Z,16.03
2019-06-20T02:26:09.223Z,16.04
2019-06-20T02:27:08.959Z,16.07
2019-06-20T02:28:08.937Z,16.04
2019-06-20T02:29:08.946Z,16.07
2019-06-20T02:30:08.915Z,16.04
2019-06-20T02:31:08.929Z,16.06
2019-06-20T02:32:08.900Z,16.14
2019-06-20T02:33:08.888Z,16.06
2019-06-20T02:34:08.873Z,16.00
2019-06-20T02:35:08.864Z,16.09
2019-06-20T02:36:08.878Z,16.07
2019-06-20T02:37:08.838Z,16.07
2019-06-20T02:38:08.834Z,16.11
2019-06-20T02:39:08.822Z,16.11
2019-06-20T02:40:08.810Z,16.20
2019-06-20T02:41:08.823Z,16.11
2019-06-20T02:42:08.792Z,16.25
2019-06-20T02:43:08.774Z,16.25
2019-06-20T02:44:28.310Z,16.20
2019-06-20T02:45:09.755Z,16.20
2019-06-20T02:46:08.773Z,16.22
2019-06-20T02:47:08.737Z,16.20
2019-06-20T02:48:08.723Z,16.18
2019-06-20T02:49:08.717Z,16.12
2019-06-20T02:50:08.704Z,16.16
2019-06-20T02:51:08.722Z,16.07
2019-06-20T02:52:08.683Z,16.15
2019-06-20T02:53:08.673Z,16.12
2019-06-20T02:54:08.666Z,16.18
2019-06-20T02:55:08.648Z,16.09
2019-06-20T02:56:08.666Z,16.04
2019-06-20T02:57:08.628Z,16.12
2019-06-20T02:58:08.619Z,16.03
2019-06-20T02:59:08.607Z,16.11
2019-06-20T03:00:08.601Z,16.04
2019-06-20T03:01:08.614Z,16.06
2019-06-20T03:02:08.574Z,16.04
2019-06-20T03:03:08.564Z,16.03
2019-06-20T03:04:08.555Z,16.01
2019-06-20T03:05:08.543Z,16.03
2019-06-20T03:06:08.534Z,15.99
2019-06-20T03:07:08.549Z,16.00
2019-06-20T03:08:08.517Z,15.92
2019-06-20T03:09:08.506Z,15.94
2019-06-20T03:10:08.496Z,15.96
2019-06-20T03:11:08.481Z,15.94
2019-06-20T03:12:08.496Z,15.92
2019-06-20T03:13:09.546Z,15.97
2019-06-20T03:14:08.450Z,15.99
2019-06-20T03:15:08.438Z,15.99
2019-06-20T03:16:08.426Z,16.00
2019-06-20T03:17:08.443Z,16.04
2019-06-20T03:18:08.407Z,16.00
2019-06-20T03:19:08.394Z,15.96
2019-06-20T03:20:08.390Z,15.99
2019-06-20T03:21:08.374Z,15.94
2019-06-20T03:22:08.400Z,16.00
2019-06-20T03:23:08.352Z,16.03
2019-06-20T03:24:08.347Z,16.04
2019-06-20T03:25:08.331Z,16.03
2019-06-20T03:26:08.323Z,16.01
2019-06-20T03:27:08.338Z,16.04
2019-06-20T03:28:08.299Z,16.07
2019-06-20T03:29:08.296Z,16.20
2019-06-20T03:30:08.284Z,16.18
2019-06-20T03:31:08.296Z,16.15
2019-06-20T03:32:08.283Z,16.27
2019-06-20T03:33:08.248Z,16.42
2019-06-20T03:34:08.239Z,16.34
2019-06-20T03:35:08.232Z,16.33
2019-06-20T03:36:08.219Z,16.37
2019-06-20T03:37:08.235Z,16.37
2019-06-20T03:38:08.196Z,16.41
2019-06-20T03:39:08.185Z,16.45
2019-06-20T03:40:08.170Z,16.38
2019-06-20T03:41:08.162Z,16.45
2019-06-20T03:42:08.189Z,16.49
2019-06-20T03:43:08.143Z,16.50
2019-06-20T03:44:08.135Z,16.53
2019-06-20T03:45:08.118Z,16.50
2019-06-20T03:46:08.123Z,16.58
2019-06-20T03:47:08.127Z,16.55
2019-06-20T03:48:08.088Z,16.60
2019-06-20T03:49:08.079Z,16.58
2019-06-20T03:50:08.069Z,16.63
2019-06-20T03:51:08.065Z,16.60
2019-06-20T03:52:08.077Z,16.62
2019-06-20T03:53:08.037Z,16.65
2019-06-20T03:54:08.088Z,16.75
2019-06-20T03:55:08.015Z,16.70
2019-06-20T03:56:08.002Z,16.73
2019-06-20T03:57:08.020Z,16.68
2019-06-20T03:58:07.986Z,16.74
2019-06-20T03:59:07.971Z,16.83
2019-06-20T04:00:07.964Z,16.80
2019-06-20T04:01:07.950Z,16.83
2019-06-20T04:02:07.964Z,16.77
2019-06-20T04:03:07.926Z,16.77
2019-06-20T04:04:07.918Z,16.85
2019-06-20T04:05:07.913Z,16.89
2019-06-20T04:06:07.896Z,16.80
2019-06-20T04:07:07.910Z,16.77
2019-06-20T04:08:07.881Z,16.75
2019-06-20T04:09:07.862Z,16.75
2019-06-20T04:10:07.879Z,16.92
2019-06-20T04:11:07.844Z,16.90
2019-06-20T04:12:07.862Z,16.95
2019-06-20T04:13:07.831Z,16.88
2019-06-20T04:14:07.818Z,16.93
2019-06-20T04:15:18.680Z,16.93
2019-06-20T04:16:08.787Z,16.89
2019-06-20T04:17:07.804Z,16.99
2019-06-20T04:18:07.769Z,16.93
2019-06-20T04:19:07.760Z,16.98
2019-06-20T04:20:07.750Z,16.98
2019-06-20T04:21:07.733Z,16.93
2019-06-20T04:22:07.752Z,17.00
2019-06-20T04:23:07.714Z,16.96
2019-06-20T04:24:07.704Z,17.04
2019-06-20T04:25:07.701Z,17.04
2019-06-20T04:26:07.754Z,17.04
2019-06-20T04:27:07.694Z,16.96
2019-06-20T04:28:07.671Z,17.03
2019-06-20T04:29:07.658Z,17.10
2019-06-20T04:30:07.649Z,17.07
2019-06-20T04:31:07.632Z,17.10
2019-06-20T04:32:07.653Z,17.06
2019-06-20T04:33:07.612Z,17.13
2019-06-20T04:34:07.615Z,17.25
2019-06-20T04:35:07.586Z,17.30
2019-06-20T04:36:07.580Z,17.30
2019-06-20T04:37:07.590Z,17.46
2019-06-20T04:38:07.554Z,17.57
2019-06-20T04:39:18.617Z,17.50
2019-06-20T04:40:08.538Z,17.62
2019-06-20T04:41:07.534Z,17.64
2019-06-20T04:42:07.539Z,17.43
2019-06-20T04:43:07.504Z,17.43
2019-06-20T04:44:07.493Z,17.35
2019-06-20T04:45:07.486Z,17.32
2019-06-20T04:46:07.473Z,17.36
2019-06-20T04:47:07.482Z,17.23
2019-06-20T04:48:07.452Z,17.18
2019-06-20T04:49:07.441Z,17.17
2019-06-20T04:50:07.433Z,17.20
2019-06-20T04:51:07.422Z,17.20
2019-06-20T04:52:07.438Z,17.13
2019-06-20T04:53:07.446Z,17.17
2019-06-20T04:54:07.393Z,17.10
2019-06-20T04:55:07.377Z,17.10
2019-06-20T04:56:07.388Z,17.10
2019-06-20T04:57:07.497Z,17.14
2019-06-20T04:58:07.343Z,17.15
2019-06-20T04:59:07.333Z,17.17
2019-06-20T05:00:07.332Z,17.22
2019-06-20T05:01:07.312Z,17.18
2019-06-20T05:02:07.323Z,17.22
2019-06-20T05:03:07.291Z,17.30
2019-06-20T05:04:07.305Z,17.30
2019-06-20T05:05:07.287Z,17.32
2019-06-20T05:06:07.261Z,17.33
2019-06-20T05:07:07.280Z,17.33
2019-06-20T05:08:07.239Z,17.43
2019-06-20T05:09:07.230Z,17.55
2019-06-20T05:10:07.214Z,17.43
2019-06-20T05:11:07.203Z,17.41
2019-06-20T05:12:07.294Z,17.41
2019-06-20T05:13:07.179Z,17.47
2019-06-20T05:14:07.173Z,17.48
2019-06-20T05:15:07.165Z,17.53
2019-06-20T05:16:07.155Z,17.48
2019-06-20T05:17:07.439Z,17.54
2019-06-20T05:18:07.134Z,17.55
2019-06-20T05:19:07.120Z,17.41
2019-06-20T05:20:07.192Z,17.38
2019-06-20T05:21:07.124Z,17.41
2019-06-20T05:22:07.128Z,17.36
2019-06-20T05:23:07.076Z,17.57
2019-06-20T05:24:07.099Z,17.43
2019-06-20T05:25:07.063Z,17.48
2019-06-20T05:26:07.043Z,17.51
2019-06-20T05:27:07.040Z,17.44
2019-06-20T05:28:07.098Z,17.48
2019-06-20T05:29:07.016Z,17.57
2019-06-20T05:30:07.009Z,17.41
2019-06-20T05:31:06.991Z,17.54
2019-06-20T05:32:06.980Z,17.57
2019-06-20T05:33:07.002Z,17.62
2019-06-20T05:34:06.959Z,17.70
2019-06-20T05:35:06.952Z,17.59
2019-06-20T05:36:06.936Z,17.64
2019-06-20T05:37:06.932Z,17.64
2019-06-20T05:38:06.951Z,17.71
2019-06-20T05:39:06.905Z,17.66
2019-06-20T05:40:06.897Z,17.73
2019-06-20T05:41:06.910Z,17.76
2019-06-20T05:42:06.871Z,17.87
2019-06-20T05:43:06.882Z,17.84
2019-06-20T05:44:06.850Z,17.92
2019-06-20T05:45:06.844Z,17.99
2019-06-20T05:46:10.629Z,17.92
2019-06-20T05:47:12.416Z,18.03
2019-06-20T05:48:07.847Z,18.07
2019-06-20T05:49:06.796Z,18.15
2019-06-20T05:50:06.797Z,18.10
2019-06-20T05:51:06.780Z,18.07
2019-06-20T05:52:06.770Z,18.21
2019-06-20T05:53:06.757Z,18.29
2019-06-20T05:54:06.786Z,18.37
2019-06-20T05:55:06.740Z,18.34
2019-06-20T05:56:06.727Z,18.25
2019-06-20T05:57:06.720Z,18.37
2019-06-20T05:58:06.713Z,18.50
2019-06-20T05:59:06.736Z,18.33
2019-06-20T06:00:06.679Z,18.42
2019-06-20T06:01:06.758Z,18.44
2019-06-20T06:02:06.735Z,18.52
2019-06-20T06:03:07.235Z,18.49
2019-06-20T06:04:06.668Z,18.40
2019-06-20T06:05:06.635Z,18.27
2019-06-20T06:06:06.629Z,18.22
2019-06-20T06:07:06.623Z,18.24
2019-06-20T06:08:06.602Z,18.37
2019-06-20T06:09:06.648Z,18.39
2019-06-20T06:10:06.606Z,18.36
2019-06-20T06:11:06.859Z,18.24
2019-06-20T06:12:06.549Z,18.12
2019-06-20T06:13:06.545Z,18.18
2019-06-20T06:14:06.566Z,18.12
2019-06-20T06:15:08.474Z,18.17
2019-06-20T06:16:06.526Z,18.15
2019-06-20T06:17:06.505Z,18.19
2019-06-20T06:18:06.491Z,18.29
2019-06-20T06:19:06.508Z,18.36
2019-06-20T06:20:06.507Z,18.50
2019-06-20T06:21:06.463Z,18.55
2019-06-20T06:22:06.527Z,18.58
2019-06-20T06:23:06.450Z,18.55
2019-06-20T06:24:06.471Z,18.59
2019-06-20T06:25:06.443Z,18.61
2019-06-20T06:26:06.412Z,18.82
2019-06-20T06:27:06.428Z,18.79
2019-06-20T06:28:06.530Z,18.87
2019-06-20T06:29:06.411Z,19.23
2019-06-20T06:30:06.398Z,19.23
2019-06-20T06:31:06.391Z,19.33
2019-06-20T06:32:06.460Z,19.36
2019-06-20T06:33:06.335Z,19.42
2019-06-20T06:34:06.327Z,19.21
2019-06-20T06:35:06.343Z,19.11
2019-06-20T06:36:06.312Z,19.05
2019-06-20T06:37:06.299Z,19.08
2019-06-20T06:38:06.299Z,19.43
2019-06-20T06:39:06.277Z,19.55
2019-06-20T06:40:06.306Z,19.43
2019-06-20T06:41:06.256Z,19.65
2019-06-20T06:42:06.239Z,19.73
2019-06-20T06:43:06.228Z,20.06
2019-06-20T06:44:08.367Z,20.30
2019-06-20T06:45:06.236Z,20.42
2019-06-20T06:46:06.197Z,20.80
2019-06-20T06:47:06.187Z,21.01
2019-06-20T06:48:06.175Z,21.17
2019-06-20T06:49:06.170Z,21.09
2019-06-20T06:50:06.178Z,21.30
2019-06-20T06:51:06.147Z,21.24
2019-06-20T06:52:06.139Z,21.06
2019-06-20T06:53:06.132Z,20.96
2019-06-20T06:54:06.113Z,20.98
2019-06-20T06:55:06.151Z,20.87
2019-06-20T06:56:06.103Z,21.01
2019-06-20T06:57:06.079Z,21.23
2019-06-20T06:58:06.076Z,21.04
2019-06-20T06:59:06.076Z,21.02
2019-06-20T07:00:06.072Z,21.30
2019-06-20T07:01:09.990Z,21.23
2019-06-20T07:02:06.032Z,21.13
2019-06-20T07:03:06.040Z,21.19
2019-06-20T07:04:06.007Z,21.19
2019-06-20T07:05:05.996Z,21.05
2019-06-20T07:06:06.021Z,21.19
2019-06-20T07:07:05.979Z,21.42
2019-06-20T07:08:05.977Z,21.54
2019-06-20T07:09:05.956Z,21.46
2019-06-20T07:10:05.949Z,21.59
2019-06-20T07:11:05.966Z,21.45
2019-06-20T07:12:05.931Z,21.39
2019-06-20T07:13:05.911Z,21.30
2019-06-20T07:14:05.899Z,21.27
2019-06-20T07:15:05.895Z,21.38
2019-06-20T07:16:05.917Z,21.30
2019-06-20T07:17:05.872Z,21.51
2019-06-20T07:18:05.859Z,21.56
2019-06-20T07:19:05.850Z,21.54
2019-06-20T07:20:05.854Z,21.24
2019-06-20T07:21:05.859Z,21.24
2019-06-20T07:22:05.819Z,21.51
2019-06-20T07:23:05.810Z,21.72
2019-06-20T07:24:05.802Z,21.98
2019-06-20T07:25:05.805Z,21.74
2019-06-20T07:26:05.820Z,21.36
2019-06-20T07:27:05.767Z,21.06
2019-06-20T07:28:05.759Z,20.61
2019-06-20T07:29:05.766Z,20.66
2019-06-20T07:30:05.748Z,20.72
2019-06-20T07:31:05.756Z,20.69
2019-06-20T07:32:05.712Z,20.58
2019-06-20T07:33:05.710Z,20.68
2019-06-20T07:34:05.703Z,20.47
2019-06-20T07:35:05.680Z,20.30
2019-06-20T07:36:05.695Z,20.46
2019-06-20T07:37:05.665Z,20.34
2019-06-20T07:38:05.650Z,20.66
2019-06-20T07:39:05.643Z,21.05
2019-06-20T07:40:05.628Z,21.24
2019-06-20T07:41:05.650Z,21.45
2019-06-20T07:42:05.614Z,21.44
2019-06-20T07:43:05.604Z,21.42
2019-06-20T07:44:05.605Z,21.48
2019-06-20T07:45:05.582Z,21.32
2019-06-20T07:46:05.589Z,21.20
2019-06-20T07:47:16.955Z,21.11
2019-06-20T07:48:06.556Z,20.96
2019-06-20T07:49:05.531Z,20.90
2019-06-20T07:50:05.542Z,20.71
2019-06-20T07:51:05.535Z,20.38
2019-06-20T07:52:05.499Z,20.31
2019-06-20T07:53:05.491Z,20.15
2019-06-20T07:54:05.484Z,20.02
2019-06-20T07:55:05.472Z,20.00
2019-06-20T07:56:09.175Z,19.73
2019-06-20T07:57:05.449Z,19.90
2019-06-20T07:58:05.449Z,19.86
2019-06-20T07:59:05.425Z,19.66
2019-06-20T08:00:05.419Z,19.61
2019-06-20T08:01:05.432Z,19.46
2019-06-20T08:02:05.394Z,19.46
2019-06-20T08:03:05.387Z,19.42
2019-06-20T08:04:05.373Z,19.65
2019-06-20T08:05:05.366Z,19.86
2019-06-20T08:06:05.380Z,20.03
2019-06-20T08:07:05.350Z,20.12
2019-06-20T08:08:05.336Z,20.18
2019-06-20T08:09:05.319Z,20.09
2019-06-20T08:10:05.313Z,20.12
2019-06-20T08:11:05.323Z,20.50
2019-06-20T08:12:05.352Z,20.59
2019-06-20T08:13:05.280Z,20.90
2019-06-20T08:14:05.270Z,21.34
2019-06-20T08:15:14.504Z,21.53
2019-06-20T08:16:06.269Z,22.07
2019-06-20T08:17:05.237Z,22.32
2019-06-20T08:18:05.316Z,22.39
2019-06-20T08:19:05.231Z,22.09
2019-06-20T08:20:05.205Z,22.31
2019-06-20T08:21:05.233Z,22.23
2019-06-20T08:22:05.189Z,22.49
2019-06-20T08:23:05.186Z,22.37
2019-06-20T08:24:05.174Z,21.94
2019-06-20T08:25:05.426Z,21.72
2019-06-20T08:26:05.218Z,21.71
2019-06-20T08:27:05.135Z,21.46
2019-06-20T08:28:06.519Z,21.13
2019-06-20T08:29:18.591Z,21.04
2019-06-20T08:30:07.261Z,20.96
2019-06-20T08:31:05.124Z,20.71
2019-06-20T08:32:05.083Z,20.53
2019-06-20T08:33:10.308Z,20.38
2019-06-20T08:34:06.553Z,20.24
2019-06-20T08:35:06.436Z,20.12
2019-06-20T08:36:06.564Z,20.18
2019-06-20T08:37:06.320Z,20.24
2019-06-20T08:38:05.754Z,20.10
2019-06-20T08:39:06.455Z,19.98
2019-06-20T08:40:06.464Z,19.93
2019-06-20T08:41:06.411Z,20.05
2019-06-20T08:42:06.309Z,20.03
2019-06-20T08:43:06.270Z,20.03
2019-06-20T08:44:06.075Z,20.34
2019-06-20T08:45:06.094Z,20.53
2019-06-20T08:46:09.941Z,20.53
2019-06-20T08:47:06.013Z,20.61
2019-06-20T08:48:04.915Z,20.87
2019-06-20T08:49:05.794Z,21.11
2019-06-20T08:50:06.052Z,21.14
2019-06-20T08:51:04.905Z,20.74
2019-06-20T08:52:05.610Z,21.16
2019-06-20T08:53:05.828Z,21.54
2019-06-20T08:54:05.433Z,21.56
2019-06-20T08:55:05.453Z,21.51
2019-06-20T08:56:05.521Z,21.94
2019-06-20T08:57:05.891Z,22.41
2019-06-20T08:58:05.661Z,22.74
2019-06-20T08:59:04.949Z,23.17
2019-06-20T09:03:04.761Z,21.44
2019-06-20T09:04:04.751Z,21.44
2019-06-20T09:05:04.747Z,21.59
2019-06-20T09:06:04.771Z,21.59
2019-06-20T09:08:04.740Z,21.57
2019-06-20T09:09:04.698Z,21.66
2019-06-20T09:10:04.703Z,21.85
2019-06-20T09:11:04.671Z,21.98
2019-06-20T09:12:05.130Z,22.12
2019-06-20T09:13:04.653Z,22.38
2019-06-20T09:14:04.643Z,23.29
2019-06-20T09:15:04.631Z,23.07
2019-06-20T09:16:04.621Z,22.43
2019-06-20T09:17:04.662Z,22.19
2019-06-20T09:18:04.599Z,22.41
2019-06-20T09:19:04.594Z,22.60
2019-06-20T09:20:04.582Z,22.39
2019-06-20T09:21:04.570Z,22.25
2019-06-20T09:22:04.986Z,22.09
2019-06-20T09:23:04.549Z,22.39
2019-06-20T09:24:04.543Z,22.53
2019-06-20T09:25:04.531Z,22.62
2019-06-20T09:26:04.518Z,22.43
2019-06-20T09:27:04.531Z,22.60
2019-06-20T09:28:04.501Z,24.12
2019-06-20T09:29:04.489Z,25.49
2019-06-20T09:30:04.475Z,26.28
2019-06-20T09:31:04.472Z,26.64
2019-06-20T09:32:04.714Z,26.91
2019-06-20T09:33:04.449Z,26.59
2019-06-20T09:34:05.464Z,27.31
2019-06-20T09:35:04.431Z,26.65
2019-06-20T09:36:04.418Z,26.02
2019-06-20T09:37:04.430Z,25.06
2019-06-20T09:38:04.400Z,24.10
2019-06-20T09:39:04.391Z,23.83
2019-06-20T09:40:04.381Z,23.70
2019-06-20T09:41:04.362Z,23.82
2019-06-20T09:42:04.383Z,23.79
2019-06-20T09:43:04.348Z,24.34
2019-06-20T09:44:04.332Z,24.52
2019-06-20T09:45:04.323Z,24.53
2019-06-20T09:46:04.316Z,25.15
2019-06-20T09:47:04.521Z,25.22
2019-06-20T09:48:04.290Z,26.22
2019-06-20T09:49:04.283Z,27.19
2019-06-20T09:50:04.273Z,28.41
2019-06-20T09:51:04.271Z,28.58
2019-06-20T09:52:04.279Z,28.60
2019-06-20T09:53:04.247Z,27.33
2019-06-20T09:54:04.237Z,27.51
2019-06-20T09:55:04.225Z,27.57
2019-06-20T09:56:04.213Z,27.24
2019-06-20T09:57:04.227Z,26.81
2019-06-20T09:58:04.193Z,26.52
2019-06-20T09:59:04.194Z,26.08
2019-06-20T10:00:09.975Z,25.71
2019-06-20T10:01:05.174Z,25.44
2019-06-20T10:02:04.202Z,25.01
2019-06-20T10:03:04.144Z,24.49
2019-06-20T10:04:04.134Z,24.37
2019-06-20T10:05:04.124Z,24.12
2019-06-20T10:06:13.443Z,24.20
2019-06-20T10:07:05.132Z,24.12
2019-06-20T10:08:04.092Z,24.34
2019-06-20T10:09:04.084Z,25.02
2019-06-20T10:10:04.093Z,25.44
2019-06-20T10:11:04.074Z,26.40
2019-06-20T10:12:04.078Z,26.47
2019-06-20T10:13:04.078Z,27.32
2019-06-20T10:14:04.035Z,26.80
2019-06-20T10:15:04.025Z,26.31
2019-06-20T10:16:04.019Z,27.70
2019-06-20T10:17:04.033Z,28.66
2019-06-20T10:18:03.994Z,29.63
2019-06-20T10:19:03.986Z,30.33
2019-06-20T10:20:03.974Z,30.46
2019-06-20T10:21:03.976Z,29.57
2019-06-20T10:22:03.983Z,29.34
2019-06-20T10:23:03.955Z,28.44
2019-06-20T10:24:03.942Z,27.39
2019-06-20T10:25:03.936Z,26.55
2019-06-20T10:26:03.914Z,25.74
2019-06-20T10:27:03.930Z,25.37
2019-06-20T10:28:03.906Z,24.80
2019-06-20T10:29:03.888Z,24.13
2019-06-20T10:30:13.921Z,23.94
2019-06-20T10:31:04.867Z,23.60
2019-06-20T10:32:04.047Z,23.38
2019-06-20T10:33:03.848Z,23.55
2019-06-20T10:34:03.840Z,23.72
2019-06-20T10:35:03.829Z,23.85
2019-06-20T10:36:03.817Z,24.35
2019-06-20T10:37:03.854Z,24.73
2019-06-20T10:38:03.806Z,24.67
2019-06-20T10:39:03.793Z,24.47
2019-06-20T10:40:03.793Z,24.17
2019-06-20T10:41:03.772Z,23.85
2019-06-20T10:42:03.787Z,23.27
2019-06-20T10:43:03.750Z,22.87
2019-06-20T10:44:03.734Z,22.72
2019-06-20T10:45:03.775Z,22.59
2019-06-20T10:46:03.737Z,22.54
2019-06-20T10:47:03.739Z,22.47
2019-06-20T10:48:03.693Z,22.62
2019-06-20T10:49:03.688Z,22.84
2019-06-20T10:50:03.674Z,23.12
2019-06-20T10:51:03.663Z,23.22
2019-06-20T10:52:03.689Z,23.20
2019-06-20T10:53:03.648Z,23.34
2019-06-20T10:54:03.635Z,24.10
2019-06-20T10:55:03.641Z,24.39
2019-06-20T10:56:03.614Z,24.75
2019-06-20T10:57:03.633Z,24.95
2019-06-20T10:58:03.619Z,25.34
2019-06-20T10:59:03.587Z,25.42
2019-06-20T11:00:03.573Z,25.07
2019-06-20T11:01:03.565Z,24.69
2019-06-20T11:02:06.478Z,24.35
2019-06-20T11:03:03.543Z,23.43
2019-06-20T11:04:03.533Z,22.87
2019-06-20T11:05:03.518Z,22.59
2019-06-20T11:06:03.509Z,22.41
2019-06-20T11:07:03.534Z,22.43
2019-06-20T11:08:03.491Z,22.38
2019-06-20T11:09:03.489Z,22.35
2019-06-20T11:10:03.471Z,22.28
2019-06-20T11:11:03.459Z,22.27
2019-06-20T11:12:03.488Z,22.22
2019-06-20T11:13:03.439Z,22.13
2019-06-20T11:14:03.429Z,22.04
2019-06-20T11:15:03.417Z,22.13
2019-06-20T11:16:03.415Z,22.27
2019-06-20T11:17:03.400Z,22.49
2019-06-20T11:18:03.414Z,22.59
2019-06-20T11:19:03.375Z,22.67
2019-06-20T11:20:03.368Z,22.78
2019-06-20T11:21:03.357Z,22.86
2019-06-20T11:22:03.347Z,23.27
2019-06-20T11:23:03.362Z,24.45
2019-06-20T11:24:03.325Z,25.79
2019-06-20T11:25:03.322Z,26.61
2019-06-20T11:26:03.312Z,27.86
2019-06-20T11:27:03.295Z,27.51
2019-06-20T11:28:03.322Z,27.70
2019-06-20T11:29:03.400Z,27.29
2019-06-20T11:30:03.517Z,26.81
2019-06-20T11:31:03.261Z,27.10
2019-06-20T11:32:03.248Z,27.73
2019-06-20T11:33:03.258Z,27.23
2019-06-20T11:34:03.223Z,26.68
2019-06-20T11:35:03.215Z,26.50
2019-06-20T11:36:03.205Z,26.27
2019-06-20T11:37:03.197Z,25.97
2019-06-20T11:38:03.206Z,25.97
2019-06-20T11:39:03.179Z,25.77
2019-06-20T11:40:03.165Z,25.80
2019-06-20T11:41:03.154Z,25.62
2019-06-20T11:42:03.152Z,25.47
2019-06-20T11:43:03.238Z,25.28
2019-06-20T11:44:03.129Z,24.98
2019-06-20T11:45:03.114Z,25.12
2019-06-20T11:46:03.103Z,25.32
2019-06-20T11:47:03.097Z,25.20
2019-06-20T11:48:03.108Z,25.22
2019-06-20T11:49:03.071Z,25.38
2019-06-20T11:50:03.090Z,25.67
2019-06-20T11:51:03.058Z,25.19
2019-06-20T11:52:03.040Z,25.02
2019-06-20T11:53:03.066Z,24.83
2019-06-20T11:54:03.019Z,24.54
2019-06-20T11:55:03.008Z,24.37
2019-06-20T11:56:03.128Z,24.44
2019-06-20T11:57:02.999Z,24.34
2019-06-20T11:58:03.006Z,24.12
2019-06-20T11:59:02.971Z,24.26
2019-06-20T12:00:02.962Z,24.50
2019-06-20T12:01:04.154Z,24.85
2019-06-20T12:02:02.944Z,24.82
2019-06-20T12:03:02.954Z,25.07
2019-06-20T12:04:02.919Z,24.90
2019-06-20T12:05:02.910Z,25.27
2019-06-20T12:06:02.900Z,25.27
2019-06-20T12:07:02.893Z,25.79
2019-06-20T12:08:02.909Z,26.01
2019-06-20T12:09:02.875Z,25.90
2019-06-20T12:10:02.862Z,25.74
2019-06-20T12:11:02.855Z,26.15
2019-06-20T12:12:02.843Z,26.59
2019-06-20T12:13:02.859Z,28.09
2019-06-20T12:14:02.826Z,28.81
2019-06-20T12:15:02.812Z,29.45
2019-06-20T12:16:02.800Z,29.52
2019-06-20T12:17:02.789Z,29.71
2019-06-20T12:18:02.803Z,29.56
2019-06-20T12:19:02.770Z,29.71
2019-06-20T12:20:02.761Z,28.91
2019-06-20T12:21:02.756Z,29.28
2019-06-20T12:22:02.739Z,29.18
2019-06-20T12:23:02.756Z,29.15
2019-06-20T12:24:02.737Z,28.81
2019-06-20T12:25:02.712Z,28.68
2019-06-20T12:26:02.716Z,28.88
2019-06-20T12:27:02.693Z,29.23
2019-06-20T12:28:02.707Z,28.93
2019-06-20T12:29:02.698Z,28.90
2019-06-20T12:30:02.670Z,28.25
2019-06-20T12:31:18.245Z,28.78
2019-06-20T12:32:03.649Z,29.23
2019-06-20T12:33:02.667Z,29.07
2019-06-20T12:34:02.626Z,28.40
2019-06-20T12:35:02.623Z,28.06
2019-06-20T12:36:02.605Z,28.06
2019-06-20T12:37:02.600Z,28.54
2019-06-20T12:38:02.614Z,28.85
2019-06-20T12:39:02.592Z,29.35
2019-06-20T12:40:02.576Z,29.26
2019-06-20T12:41:02.565Z,29.29
2019-06-20T12:42:02.553Z,29.89
2019-06-20T12:43:02.582Z,29.81
2019-06-20T12:44:02.530Z,29.97
2019-06-20T12:45:02.526Z,29.70
2019-06-20T12:46:02.520Z,29.33
2019-06-20T12:47:02.504Z,29.07
2019-06-20T12:48:02.521Z,29.08
2019-06-20T12:49:02.484Z,29.31
2019-06-20T12:50:02.473Z,28.66
2019-06-20T12:51:02.466Z,28.38
2019-06-20T12:52:02.466Z,28.23
2019-06-20T12:53:02.479Z,28.04
2019-06-20T12:54:02.441Z,27.85
2019-06-20T12:55:02.437Z,27.35
2019-06-20T12:56:02.416Z,27.76